KAFW METAR and TAF | Updated Today

KAFW METAR

Fort Worth Alliance Airport

Observation time: 41 min. ago

KAFW 301753Z 18007KT 10SM SCT250 20/09 A3008 RMK AO2 SLP182 T02000094 10206 20083 58002

Need help? Read our tutorial on how to read METARs or read the parsed version below.

Fort Worth Alliance Airport (KAFW) METAR

  • Weather conditions on Tue, 30 Nov 2021 17:53:00 +0000 (41 min. ago):
  • Present conditions: Dry
  • Clouds: Scattered at 7620 meters
  • Visibility: 16093 meters
  • Wind: 180 degrees at 7 knots
  • Temperature: 20 celsius
  • Dew point: 9 celsius
  • Pressure: 30.08 inHg
  • Remarks: AO2 SLP182 T02000094 10206 20083 58002


Useful to know...

KAFW TAF

Fort Worth Alliance Airport

KAFW 301720Z 3018/0118 19010KT P6SM FEW250 FM011400 26009KT P6SM FEW250
Observation time: 74 min. ago
Need help? Read our tutorial on how to read TAFs or read the parsed version below.

Parsed version of TAF for Fort Worth Alliance Airport (KAFW)

  • From 30 November at 18:00 UTC, to day 01 of the month at 18:00 UTC
  • Clouds: A few at 7620 meters
  • Wind: 190 degrees at 10
  • From day 1 of the month at 14:00 UTC
  • Clouds: A few at 7620 meters
  • Wind: 260 degrees at 9